sensor_id;sensor_type;location;lat;lon;timestamp;P1;durP1;ratioP1;P2;durP2;ratioP2
43835;SDS011;39345;43.964;25.340;2023-09-19T00:00:43;7.72;;;5.43;;
43835;SDS011;39345;43.964;25.340;2023-09-19T00:03:13;10.43;;;4.88;;
43835;SDS011;39345;43.964;25.340;2023-09-19T00:05:41;9.20;;;5.47;;
43835;SDS011;39345;43.964;25.340;2023-09-19T00:08:13;8.95;;;5.38;;
43835;SDS011;39345;43.964;25.340;2023-09-19T00:10:41;9.65;;;5.40;;
43835;SDS011;39345;43.964;25.340;2023-09-19T00:13:09;9.25;;;5.65;;
43835;SDS011;39345;43.964;25.340;2023-09-19T00:15:44;10.05;;;6.10;;
43835;SDS011;39345;43.964;25.340;2023-09-19T00:18:17;9.52;;;5.40;;
43835;SDS011;39345;43.964;25.340;2023-09-19T00:20:48;8.57;;;5.03;;
43835;SDS011;39345;43.964;25.340;2023-09-19T00:23:18;11.27;;;5.93;;
43835;SDS011;39345;43.964;25.340;2023-09-19T00:25:47;9.45;;;5.80;;
43835;SDS011;39345;43.964;25.340;2023-09-19T00:28:14;10.02;;;6.10;;
43835;SDS011;39345;43.964;25.340;2023-09-19T00:30:43;8.98;;;5.03;;
43835;SDS011;39345;43.964;25.340;2023-09-19T00:33:11;10.25;;;5.43;;
43835;SDS011;39345;43.964;25.340;2023-09-19T00:35:49;8.43;;;5.18;;
43835;SDS011;39345;43.964;25.340;2023-09-19T00:38:17;10.63;;;5.80;;
43835;SDS011;39345;43.964;25.340;2023-09-19T00:40:48;11.73;;;5.95;;
43835;SDS011;39345;43.964;25.340;2023-09-19T00:43:17;9.18;;;5.20;;
43835;SDS011;39345;43.964;25.340;2023-09-19T00:45:46;8.90;;;5.57;;
43835;SDS011;39345;43.964;25.340;2023-09-19T00:48:15;6.75;;;5.57;;
43835;SDS011;39345;43.964;25.340;2023-09-19T00:50:44;9.18;;;5.30;;
43835;SDS011;39345;43.964;25.340;2023-09-19T00:53:15;8.60;;;5.85;;
43835;SDS011;39345;43.964;25.340;2023-09-19T00:55:45;8.35;;;5.40;;
43835;SDS011;39345;43.964;25.340;2023-09-19T00:58:13;7.47;;;5.68;;
43835;SDS011;39345;43.964;25.340;2023-09-19T01:00:41;8.27;;;5.53;;
43835;SDS011;39345;43.964;25.340;2023-09-19T01:03:11;7.55;;;5.20;;
43835;SDS011;39345;43.964;25.340;2023-09-19T01:05:40;9.38;;;5.80;;
43835;SDS011;39345;43.964;25.340;2023-09-19T01:08:08;9.68;;;5.88;;
43835;SDS011;39345;43.964;25.340;2023-09-19T01:10:38;12.02;;;6.18;;
43835;SDS011;39345;43.964;25.340;2023-09-19T01:18:50;9.18;;;6.13;;
43835;SDS011;39345;43.964;25.340;2023-09-19T01:21:26;10.23;;;6.40;;
43835;SDS011;39345;43.964;25.340;2023-09-19T01:31:38;17.20;;;7.30;;
43835;SDS011;39345;43.964;25.340;2023-09-19T01:34:07;12.13;;;7.00;;
43835;SDS011;39345;43.964;25.340;2023-09-19T01:36:36;8.50;;;6.60;;
43835;SDS011;39345;43.964;25.340;2023-09-19T01:39:07;14.00;;;7.13;;
43835;SDS011;39345;43.964;25.340;2023-09-19T01:44:44;11.75;;;6.97;;
43835;SDS011;39345;43.964;25.340;2023-09-19T01:49:55;10.48;;;6.93;;
43835;SDS011;39345;43.964;25.340;2023-09-19T01:52:23;9.30;;;6.57;;
43835;SDS011;39345;43.964;25.340;2023-09-19T01:54:55;9.00;;;6.57;;
43835;SDS011;39345;43.964;25.340;2023-09-19T01:57:32;9.90;;;6.60;;
43835;SDS011;39345;43.964;25.340;2023-09-19T02:00:05;11.18;;;7.05;;
43835;SDS011;39345;43.964;25.340;2023-09-19T02:02:42;9.75;;;6.70;;
43835;SDS011;39345;43.964;25.340;2023-09-19T02:05:11;12.30;;;7.05;;
43835;SDS011;39345;43.964;25.340;2023-09-19T02:07:39;11.05;;;6.82;;
43835;SDS011;39345;43.964;25.340;2023-09-19T02:10:07;11.43;;;7.20;;
43835;SDS011;39345;43.964;25.340;2023-09-19T02:12:37;9.82;;;6.82;;
43835;SDS011;39345;43.964;25.340;2023-09-19T02:15:04;12.52;;;6.97;;
43835;SDS011;39345;43.964;25.340;2023-09-19T02:17:33;10.25;;;7.07;;
43835;SDS011;39345;43.964;25.340;2023-09-19T02:20:01;10.63;;;6.55;;
43835;SDS011;39345;43.964;25.340;2023-09-19T02:22:37;10.68;;;6.70;;
43835;SDS011;39345;43.964;25.340;2023-09-19T02:25:05;11.45;;;6.70;;
43835;SDS011;39345;43.964;25.340;2023-09-19T02:27:35;12.73;;;6.63;;
43835;SDS011;39345;43.964;25.340;2023-09-19T02:30:03;9.60;;;5.70;;
43835;SDS011;39345;43.964;25.340;2023-09-19T02:32:32;11.20;;;6.40;;
43835;SDS011;39345;43.964;25.340;2023-09-19T02:35:03;9.05;;;5.88;;
43835;SDS011;39345;43.964;25.340;2023-09-19T02:37:31;10.45;;;6.07;;
43835;SDS011;39345;43.964;25.340;2023-09-19T02:39:59;9.68;;;6.63;;
43835;SDS011;39345;43.964;25.340;2023-09-19T02:42:27;8.23;;;6.18;;
43835;SDS011;39345;43.964;25.340;2023-09-19T02:44:54;11.07;;;6.65;;
43835;SDS011;39345;43.964;25.340;2023-09-19T02:47:23;11.48;;;6.95;;
43835;SDS011;39345;43.964;25.340;2023-09-19T02:49:51;8.40;;;6.32;;
43835;SDS011;39345;43.964;25.340;2023-09-19T02:52:18;10.02;;;6.57;;
43835;SDS011;39345;43.964;25.340;2023-09-19T02:54:46;10.93;;;6.70;;
43835;SDS011;39345;43.964;25.340;2023-09-19T02:57:13;9.68;;;7.22;;
43835;SDS011;39345;43.964;25.340;2023-09-19T02:59:43;10.75;;;7.10;;
43835;SDS011;39345;43.964;25.340;2023-09-19T03:02:11;12.95;;;6.97;;
43835;SDS011;39345;43.964;25.340;2023-09-19T03:04:38;11.43;;;7.20;;
43835;SDS011;39345;43.964;25.340;2023-09-19T03:07:06;12.75;;;7.68;;
43835;SDS011;39345;43.964;25.340;2023-09-19T03:09:38;13.07;;;7.88;;
43835;SDS011;39345;43.964;25.340;2023-09-19T03:12:05;14.35;;;7.65;;
43835;SDS011;39345;43.964;25.340;2023-09-19T03:14:33;15.63;;;7.90;;
43835;SDS011;39345;43.964;25.340;2023-09-19T03:17:02;14.98;;;7.43;;
43835;SDS011;39345;43.964;25.340;2023-09-19T03:19:33;12.85;;;6.88;;
43835;SDS011;39345;43.964;25.340;2023-09-19T03:22:01;12.00;;;7.28;;
43835;SDS011;39345;43.964;25.340;2023-09-19T03:24:30;12.88;;;7.63;;
43835;SDS011;39345;43.964;25.340;2023-09-19T03:27:01;13.15;;;7.28;;
43835;SDS011;39345;43.964;25.340;2023-09-19T03:29:30;12.45;;;7.72;;
43835;SDS011;39345;43.964;25.340;2023-09-19T03:32:01;11.18;;;7.10;;
43835;SDS011;39345;43.964;25.340;2023-09-19T03:34:30;9.50;;;7.47;;
43835;SDS011;39345;43.964;25.340;2023-09-19T03:36:57;10.80;;;7.50;;
43835;SDS011;39345;43.964;25.340;2023-09-19T03:39:26;11.85;;;7.22;;
43835;SDS011;39345;43.964;25.340;2023-09-19T03:41:53;11.50;;;7.43;;
43835;SDS011;39345;43.964;25.340;2023-09-19T03:44:21;12.20;;;8.18;;
43835;SDS011;39345;43.964;25.340;2023-09-19T03:46:48;14.95;;;8.45;;
43835;SDS011;39345;43.964;25.340;2023-09-19T03:49:16;14.90;;;9.32;;
43835;SDS011;39345;43.964;25.340;2023-09-19T03:51:44;14.50;;;8.65;;
43835;SDS011;39345;43.964;25.340;2023-09-19T03:54:11;14.00;;;10.07;;
43835;SDS011;39345;43.964;25.340;2023-09-19T03:56:39;12.57;;;9.13;;
43835;SDS011;39345;43.964;25.340;2023-09-19T03:59:06;16.17;;;8.40;;
43835;SDS011;39345;43.964;25.340;2023-09-19T04:01:35;10.48;;;7.95;;
43835;SDS011;39345;43.964;25.340;2023-09-19T04:04:04;12.85;;;7.97;;
43835;SDS011;39345;43.964;25.340;2023-09-19T04:06:35;9.90;;;8.13;;
43835;SDS011;39345;43.964;25.340;2023-09-19T04:09:03;14.48;;;8.40;;
43835;SDS011;39345;43.964;25.340;2023-09-19T04:11:33;15.15;;;8.50;;
43835;SDS011;39345;43.964;25.340;2023-09-19T04:14:02;13.10;;;9.20;;
43835;SDS011;39345;43.964;25.340;2023-09-19T04:16:31;12.02;;;8.45;;
43835;SDS011;39345;43.964;25.340;2023-09-19T04:18:59;13.43;;;8.18;;
43835;SDS011;39345;43.964;25.340;2023-09-19T04:21:27;14.48;;;8.65;;
43835;SDS011;39345;43.964;25.340;2023-09-19T04:23:55;14.27;;;8.70;;
43835;SDS011;39345;43.964;25.340;2023-09-19T04:26:23;12.43;;;8.20;;
43835;SDS011;39345;43.964;25.340;2023-09-19T04:28:52;11.25;;;8.35;;
43835;SDS011;39345;43.964;25.340;2023-09-19T04:31:20;16.40;;;8.77;;
43835;SDS011;39345;43.964;25.340;2023-09-19T04:33:48;13.85;;;8.50;;
43835;SDS011;39345;43.964;25.340;2023-09-19T04:36:15;13.90;;;8.70;;
43835;SDS011;39345;43.964;25.340;2023-09-19T04:39:01;14.60;;;8.20;;
43835;SDS011;39345;43.964;25.340;2023-09-19T04:41:31;11.88;;;8.18;;
43835;SDS011;39345;43.964;25.340;2023-09-19T04:43:59;13.85;;;7.40;;
43835;SDS011;39345;43.964;25.340;2023-09-19T04:46:27;9.60;;;7.55;;
43835;SDS011;39345;43.964;25.340;2023-09-19T04:48:54;12.88;;;8.50;;
43835;SDS011;39345;43.964;25.340;2023-09-19T04:51:22;14.05;;;8.00;;
43835;SDS011;39345;43.964;25.340;2023-09-19T04:53:50;11.85;;;8.32;;
43835;SDS011;39345;43.964;25.340;2023-09-19T04:56:17;11.73;;;7.97;;
43835;SDS011;39345;43.964;25.340;2023-09-19T04:58:45;10.15;;;7.78;;
43835;SDS011;39345;43.964;25.340;2023-09-19T05:01:13;15.07;;;7.80;;
43835;SDS011;39345;43.964;25.340;2023-09-19T05:03:42;11.20;;;8.15;;
43835;SDS011;39345;43.964;25.340;2023-09-19T05:06:11;10.93;;;7.20;;
43835;SDS011;39345;43.964;25.340;2023-09-19T05:08:38;11.10;;;7.43;;
43835;SDS011;39345;43.964;25.340;2023-09-19T05:11:06;9.93;;;7.15;;
43835;SDS011;39345;43.964;25.340;2023-09-19T05:13:33;10.38;;;7.70;;
43835;SDS011;39345;43.964;25.340;2023-09-19T05:16:01;9.80;;;7.10;;
43835;SDS011;39345;43.964;25.340;2023-09-19T05:18:29;11.85;;;7.82;;
43835;SDS011;39345;43.964;25.340;2023-09-19T05:20:56;12.43;;;7.05;;
43835;SDS011;39345;43.964;25.340;2023-09-19T05:23:24;8.15;;;6.80;;
43835;SDS011;39345;43.964;25.340;2023-09-19T05:25:51;10.93;;;7.20;;
43835;SDS011;39345;43.964;25.340;2023-09-19T05:28:19;10.45;;;6.80;;
43835;SDS011;39345;43.964;25.340;2023-09-19T05:30:46;11.65;;;7.03;;
43835;SDS011;39345;43.964;25.340;2023-09-19T05:33:15;8.93;;;6.30;;
43835;SDS011;39345;43.964;25.340;2023-09-19T05:35:45;8.95;;;6.25;;
43835;SDS011;39345;43.964;25.340;2023-09-19T05:38:13;9.73;;;6.57;;
43835;SDS011;39345;43.964;25.340;2023-09-19T05:40:45;8.88;;;6.32;;
43835;SDS011;39345;43.964;25.340;2023-09-19T05:43:13;10.68;;;6.78;;
43835;SDS011;39345;43.964;25.340;2023-09-19T05:45:41;12.48;;;6.75;;
43835;SDS011;39345;43.964;25.340;2023-09-19T05:48:09;10.63;;;6.25;;
43835;SDS011;39345;43.964;25.340;2023-09-19T05:50:38;10.38;;;5.95;;
43835;SDS011;39345;43.964;25.340;2023-09-19T05:53:05;8.52;;;6.10;;
43835;SDS011;39345;43.964;25.340;2023-09-19T05:55:33;12.43;;;6.20;;
43835;SDS011;39345;43.964;25.340;2023-09-19T05:58:00;9.73;;;6.10;;
43835;SDS011;39345;43.964;25.340;2023-09-19T06:00:30;11.52;;;6.25;;
43835;SDS011;39345;43.964;25.340;2023-09-19T06:02:58;12.25;;;6.20;;
43835;SDS011;39345;43.964;25.340;2023-09-19T06:05:26;10.80;;;6.28;;
43835;SDS011;39345;43.964;25.340;2023-09-19T06:07:56;7.43;;;5.72;;
43835;SDS011;39345;43.964;25.340;2023-09-19T06:10:27;14.07;;;5.75;;
43835;SDS011;39345;43.964;25.340;2023-09-19T06:12:55;8.93;;;5.45;;
43835;SDS011;39345;43.964;25.340;2023-09-19T06:15:24;7.82;;;5.82;;
43835;SDS011;39345;43.964;25.340;2023-09-19T06:17:53;9.93;;;5.57;;
43835;SDS011;39345;43.964;25.340;2023-09-19T06:20:26;9.25;;;5.55;;
43835;SDS011;39345;43.964;25.340;2023-09-19T06:22:53;6.65;;;4.88;;
43835;SDS011;39345;43.964;25.340;2023-09-19T06:25:21;6.03;;;5.07;;
43835;SDS011;39345;43.964;25.340;2023-09-19T06:27:50;8.80;;;5.47;;
43835;SDS011;39345;43.964;25.340;2023-09-19T06:30:22;8.65;;;5.13;;
43835;SDS011;39345;43.964;25.340;2023-09-19T06:32:56;6.88;;;5.20;;
43835;SDS011;39345;43.964;25.340;2023-09-19T06:35:24;8.05;;;5.40;;
43835;SDS011;39345;43.964;25.340;2023-09-19T06:37:53;7.68;;;5.47;;
43835;SDS011;39345;43.964;25.340;2023-09-19T06:40:20;9.10;;;4.70;;
43835;SDS011;39345;43.964;25.340;2023-09-19T06:42:50;10.65;;;5.07;;
43835;SDS011;39345;43.964;25.340;2023-09-19T06:45:18;10.18;;;5.50;;
43835;SDS011;39345;43.964;25.340;2023-09-19T06:47:46;9.93;;;5.10;;
43835;SDS011;39345;43.964;25.340;2023-09-19T06:50:18;10.43;;;5.07;;
43835;SDS011;39345;43.964;25.340;2023-09-19T06:52:49;8.70;;;4.68;;
43835;SDS011;39345;43.964;25.340;2023-09-19T06:55:18;9.40;;;4.90;;
43835;SDS011;39345;43.964;25.340;2023-09-19T06:57:47;8.85;;;4.53;;
43835;SDS011;39345;43.964;25.340;2023-09-19T07:00:15;7.90;;;5.22;;
43835;SDS011;39345;43.964;25.340;2023-09-19T07:02:45;11.38;;;4.82;;
43835;SDS011;39345;43.964;25.340;2023-09-19T07:05:12;10.60;;;4.85;;
43835;SDS011;39345;43.964;25.340;2023-09-19T07:07:40;10.15;;;4.70;;
43835;SDS011;39345;43.964;25.340;2023-09-19T07:10:07;5.80;;;4.32;;
43835;SDS011;39345;43.964;25.340;2023-09-19T07:12:37;6.35;;;3.80;;
43835;SDS011;39345;43.964;25.340;2023-09-19T07:15:05;8.25;;;4.32;;
43835;SDS011;39345;43.964;25.340;2023-09-19T07:17:32;6.30;;;4.30;;
43835;SDS011;39345;43.964;25.340;2023-09-19T07:20:00;8.90;;;4.57;;
43835;SDS011;39345;43.964;25.340;2023-09-19T07:22:34;5.70;;;4.40;;
43835;SDS011;39345;43.964;25.340;2023-09-19T07:25:02;6.78;;;4.55;;
43835;SDS011;39345;43.964;25.340;2023-09-19T07:27:30;10.05;;;4.80;;
43835;SDS011;39345;43.964;25.340;2023-09-19T07:29:57;7.60;;;4.00;;
43835;SDS011;39345;43.964;25.340;2023-09-19T07:32:25;7.68;;;4.03;;
43835;SDS011;39345;43.964;25.340;2023-09-19T07:34:53;7.57;;;4.45;;
43835;SDS011;39345;43.964;25.340;2023-09-19T07:37:21;6.78;;;4.30;;
43835;SDS011;39345;43.964;25.340;2023-09-19T07:39:52;9.27;;;4.07;;
43835;SDS011;39345;43.964;25.340;2023-09-19T07:42:20;5.18;;;3.90;;
43835;SDS011;39345;43.964;25.340;2023-09-19T07:44:48;10.20;;;4.40;;
43835;SDS011;39345;43.964;25.340;2023-09-19T07:47:17;10.05;;;4.60;;
43835;SDS011;39345;43.964;25.340;2023-09-19T07:49:46;9.73;;;4.57;;
43835;SDS011;39345;43.964;25.340;2023-09-19T07:52:14;10.40;;;4.28;;
43835;SDS011;39345;43.964;25.340;2023-09-19T07:54:42;7.43;;;5.00;;
43835;SDS011;39345;43.964;25.340;2023-09-19T07:57:10;6.07;;;4.35;;
43835;SDS011;39345;43.964;25.340;2023-09-19T07:59:38;7.00;;;4.30;;
43835;SDS011;39345;43.964;25.340;2023-09-19T08:02:08;8.13;;;4.07;;
43835;SDS011;39345;43.964;25.340;2023-09-19T08:04:42;9.98;;;4.32;;
43835;SDS011;39345;43.964;25.340;2023-09-19T08:07:13;5.90;;;3.83;;
43835;SDS011;39345;43.964;25.340;2023-09-19T08:09:40;7.10;;;4.97;;
43835;SDS011;39345;43.964;25.340;2023-09-19T08:12:12;7.50;;;4.38;;
43835;SDS011;39345;43.964;25.340;2023-09-19T08:14:41;7.53;;;4.00;;
43835;SDS011;39345;43.964;25.340;2023-09-19T08:17:08;9.52;;;5.40;;
43835;SDS011;39345;43.964;25.340;2023-09-19T08:19:36;4.95;;;3.65;;
43835;SDS011;39345;43.964;25.340;2023-09-19T08:22:08;8.95;;;4.20;;
43835;SDS011;39345;43.964;25.340;2023-09-19T08:24:36;8.93;;;4.68;;
43835;SDS011;39345;43.964;25.340;2023-09-19T08:27:05;10.35;;;5.25;;
43835;SDS011;39345;43.964;25.340;2023-09-19T08:29:35;9.57;;;4.75;;
43835;SDS011;39345;43.964;25.340;2023-09-19T08:32:03;6.68;;;3.70;;
43835;SDS011;39345;43.964;25.340;2023-09-19T08:34:31;11.43;;;3.80;;
43835;SDS011;39345;43.964;25.340;2023-09-19T08:37:00;6.63;;;3.67;;
43835;SDS011;39345;43.964;25.340;2023-09-19T08:39:29;8.77;;;3.88;;
43835;SDS011;39345;43.964;25.340;2023-09-19T08:42:00;8.52;;;3.70;;
43835;SDS011;39345;43.964;25.340;2023-09-19T08:44:28;6.60;;;3.13;;
43835;SDS011;39345;43.964;25.340;2023-09-19T08:47:15;8.38;;;4.82;;
43835;SDS011;39345;43.964;25.340;2023-09-19T08:49:58;5.95;;;4.65;;
43835;SDS011;39345;43.964;25.340;2023-09-19T08:54:58;10.55;;;3.65;;
43835;SDS011;39345;43.964;25.340;2023-09-19T08:57:33;6.65;;;3.63;;
43835;SDS011;39345;43.964;25.340;2023-09-19T09:00:02;10.50;;;5.40;;
43835;SDS011;39345;43.964;25.340;2023-09-19T09:02:37;7.00;;;3.80;;
43835;SDS011;39345;43.964;25.340;2023-09-19T09:05:09;4.80;;;3.65;;
43835;SDS011;39345;43.964;25.340;2023-09-19T09:07:41;6.65;;;3.63;;
43835;SDS011;39345;43.964;25.340;2023-09-19T09:10:08;6.22;;;3.53;;
43835;SDS011;39345;43.964;25.340;2023-09-19T09:12:36;9.02;;;3.50;;
43835;SDS011;39345;43.964;25.340;2023-09-19T09:15:06;9.70;;;3.50;;
43835;SDS011;39345;43.964;25.340;2023-09-19T09:17:35;9.27;;;4.05;;
43835;SDS011;39345;43.964;25.340;2023-09-19T09:20:03;8.07;;;4.40;;
43835;SDS011;39345;43.964;25.340;2023-09-19T09:22:36;6.00;;;3.60;;
43835;SDS011;39345;43.964;25.340;2023-09-19T09:25:06;5.03;;;3.33;;
43835;SDS011;39345;43.964;25.340;2023-09-19T09:27:34;7.45;;;3.15;;
43835;SDS011;39345;43.964;25.340;2023-09-19T09:30:02;6.95;;;3.70;;
43835;SDS011;39345;43.964;25.340;2023-09-19T09:32:30;9.68;;;3.35;;
43835;SDS011;39345;43.964;25.340;2023-09-19T09:35:08;5.30;;;2.90;;
43835;SDS011;39345;43.964;25.340;2023-09-19T09:37:36;6.18;;;2.97;;
43835;SDS011;39345;43.964;25.340;2023-09-19T09:40:05;10.02;;;3.70;;
43835;SDS011;39345;43.964;25.340;2023-09-19T09:42:41;5.95;;;3.67;;
43835;SDS011;39345;43.964;25.340;2023-09-19T09:45:22;4.25;;;3.30;;
43835;SDS011;39345;43.964;25.340;2023-09-19T09:47:59;9.27;;;4.60;;
43835;SDS011;39345;43.964;25.340;2023-09-19T09:50:34;10.07;;;4.40;;
43835;SDS011;39345;43.964;25.340;2023-09-19T09:58:25;6.22;;;2.95;;
43835;SDS011;39345;43.964;25.340;2023-09-19T10:00:56;6.80;;;3.20;;
43835;SDS011;39345;43.964;25.340;2023-09-19T10:03:33;8.27;;;3.50;;
43835;SDS011;39345;43.964;25.340;2023-09-19T10:06:09;6.75;;;3.60;;
43835;SDS011;39345;43.964;25.340;2023-09-19T10:09:05;7.32;;;5.20;;
43835;SDS011;39345;43.964;25.340;2023-09-19T10:12:03;5.28;;;3.40;;
43835;SDS011;39345;43.964;25.340;2023-09-19T10:14:33;5.22;;;3.70;;
43835;SDS011;39345;43.964;25.340;2023-09-19T10:17:01;6.82;;;3.20;;
43835;SDS011;39345;43.964;25.340;2023-09-19T10:19:35;5.07;;;3.03;;
43835;SDS011;39345;43.964;25.340;2023-09-19T10:22:04;6.28;;;3.05;;
43835;SDS011;39345;43.964;25.340;2023-09-19T10:24:35;7.90;;;3.13;;
43835;SDS011;39345;43.964;25.340;2023-09-19T10:27:18;5.00;;;2.70;;
43835;SDS011;39345;43.964;25.340;2023-09-19T10:29:48;5.50;;;2.85;;
43835;SDS011;39345;43.964;25.340;2023-09-19T10:32:17;3.03;;;2.40;;
43835;SDS011;39345;43.964;25.340;2023-09-19T10:34:49;3.08;;;2.47;;
43835;SDS011;39345;43.964;25.340;2023-09-19T10:37:17;5.38;;;2.80;;
43835;SDS011;39345;43.964;25.340;2023-09-19T10:39:48;6.25;;;2.83;;
43835;SDS011;39345;43.964;25.340;2023-09-19T10:42:21;5.10;;;2.92;;
43835;SDS011;39345;43.964;25.340;2023-09-19T10:44:54;5.00;;;3.00;;
43835;SDS011;39345;43.964;25.340;2023-09-19T10:47:22;4.55;;;2.63;;
43835;SDS011;39345;43.964;25.340;2023-09-19T10:49:50;4.95;;;2.75;;
43835;SDS011;39345;43.964;25.340;2023-09-19T10:52:20;4.18;;;2.25;;
43835;SDS011;39345;43.964;25.340;2023-09-19T10:54:50;6.30;;;2.20;;
43835;SDS011;39345;43.964;25.340;2023-09-19T10:57:21;4.32;;;2.60;;
43835;SDS011;39345;43.964;25.340;2023-09-19T11:00:04;4.85;;;2.70;;
43835;SDS011;39345;43.964;25.340;2023-09-19T11:05:40;5.22;;;2.85;;
43835;SDS011;39345;43.964;25.340;2023-09-19T11:08:08;3.95;;;2.35;;
43835;SDS011;39345;43.964;25.340;2023-09-19T11:10:47;5.70;;;2.97;;
43835;SDS011;39345;43.964;25.340;2023-09-19T11:13:26;4.05;;;2.72;;
43835;SDS011;39345;43.964;25.340;2023-09-19T11:26:44;4.40;;;2.40;;
43835;SDS011;39345;43.964;25.340;2023-09-19T11:29:24;4.30;;;2.22;;
43835;SDS011;39345;43.964;25.340;2023-09-19T11:31:52;2.60;;;2.20;;
43835;SDS011;39345;43.964;25.340;2023-09-19T11:34:38;3.95;;;3.13;;
43835;SDS011;39345;43.964;25.340;2023-09-19T11:39:38;4.47;;;2.85;;
43835;SDS011;39345;43.964;25.340;2023-09-19T11:44:53;3.88;;;2.80;;
43835;SDS011;39345;43.964;25.340;2023-09-19T11:47:22;3.88;;;2.60;;
43835;SDS011;39345;43.964;25.340;2023-09-19T11:49:51;5.05;;;2.30;;
43835;SDS011;39345;43.964;25.340;2023-09-19T11:52:22;4.57;;;2.28;;
43835;SDS011;39345;43.964;25.340;2023-09-19T11:54:58;3.72;;;2.25;;
43835;SDS011;39345;43.964;25.340;2023-09-19T11:57:28;4.60;;;2.83;;
43835;SDS011;39345;43.964;25.340;2023-09-19T11:59:58;4.22;;;2.55;;
43835;SDS011;39345;43.964;25.340;2023-09-19T12:02:36;4.35;;;2.30;;
43835;SDS011;39345;43.964;25.340;2023-09-19T12:05:09;4.35;;;2.22;;
43835;SDS011;39345;43.964;25.340;2023-09-19T12:07:43;4.40;;;2.30;;
43835;SDS011;39345;43.964;25.340;2023-09-19T12:10:12;3.83;;;2.28;;
43835;SDS011;39345;43.964;25.340;2023-09-19T12:12:49;3.53;;;2.70;;
43835;SDS011;39345;43.964;25.340;2023-09-19T12:15:25;4.40;;;2.80;;
43835;SDS011;39345;43.964;25.340;2023-09-19T12:17:55;6.00;;;3.00;;
43835;SDS011;39345;43.964;25.340;2023-09-19T12:20:22;5.22;;;2.42;;
43835;SDS011;39345;43.964;25.340;2023-09-19T12:22:50;4.50;;;2.85;;
43835;SDS011;39345;43.964;25.340;2023-09-19T12:25:17;9.15;;;7.97;;
43835;SDS011;39345;43.964;25.340;2023-09-19T12:27:48;3.90;;;3.08;;
43835;SDS011;39345;43.964;25.340;2023-09-19T12:30:19;3.28;;;2.58;;
43835;SDS011;39345;43.964;25.340;2023-09-19T12:32:53;5.65;;;2.85;;
43835;SDS011;39345;43.964;25.340;2023-09-19T12:35:31;4.53;;;2.60;;
43835;SDS011;39345;43.964;25.340;2023-09-19T12:38:02;4.40;;;3.00;;
43835;SDS011;39345;43.964;25.340;2023-09-19T12:40:30;3.75;;;2.65;;
43835;SDS011;39345;43.964;25.340;2023-09-19T12:43:00;6.07;;;2.67;;
43835;SDS011;39345;43.964;25.340;2023-09-19T12:45:31;5.60;;;2.35;;
43835;SDS011;39345;43.964;25.340;2023-09-19T12:53:26;3.50;;;2.40;;
43835;SDS011;39345;43.964;25.340;2023-09-19T12:55:59;3.97;;;2.40;;
43835;SDS011;39345;43.964;25.340;2023-09-19T12:58:27;6.32;;;2.58;;
43835;SDS011;39345;43.964;25.340;2023-09-19T13:00:57;4.05;;;2.65;;
43835;SDS011;39345;43.964;25.340;2023-09-19T13:03:25;5.30;;;2.60;;
43835;SDS011;39345;43.964;25.340;2023-09-19T13:05:55;5.15;;;2.70;;
43835;SDS011;39345;43.964;25.340;2023-09-19T13:08:25;4.68;;;2.30;;
43835;SDS011;39345;43.964;25.340;2023-09-19T13:16:56;4.15;;;2.40;;
43835;SDS011;39345;43.964;25.340;2023-09-19T13:19:43;4.55;;;2.33;;
43835;SDS011;39345;43.964;25.340;2023-09-19T13:25:01;6.63;;;2.83;;
43835;SDS011;39345;43.964;25.340;2023-09-19T13:27:30;8.20;;;2.83;;
43835;SDS011;39345;43.964;25.340;2023-09-19T13:29:58;5.57;;;2.65;;
43835;SDS011;39345;43.964;25.340;2023-09-19T13:32:26;4.75;;;2.53;;
43835;SDS011;39345;43.964;25.340;2023-09-19T13:34:53;5.25;;;2.78;;
43835;SDS011;39345;43.964;25.340;2023-09-19T13:37:21;5.65;;;2.33;;
43835;SDS011;39345;43.964;25.340;2023-09-19T13:39:48;5.00;;;3.05;;
43835;SDS011;39345;43.964;25.340;2023-09-19T13:42:16;6.55;;;2.75;;
43835;SDS011;39345;43.964;25.340;2023-09-19T13:44:44;4.75;;;2.92;;
43835;SDS011;39345;43.964;25.340;2023-09-19T13:47:12;6.63;;;3.17;;
43835;SDS011;39345;43.964;25.340;2023-09-19T13:49:41;3.55;;;2.80;;
43835;SDS011;39345;43.964;25.340;2023-09-19T13:52:09;5.28;;;2.90;;
43835;SDS011;39345;43.964;25.340;2023-09-19T13:54:39;5.85;;;2.70;;
43835;SDS011;39345;43.964;25.340;2023-09-19T13:57:07;8.05;;;2.53;;
43835;SDS011;39345;43.964;25.340;2023-09-19T13:59:36;6.03;;;2.65;;
43835;SDS011;39345;43.964;25.340;2023-09-19T14:02:04;4.00;;;2.10;;
43835;SDS011;39345;43.964;25.340;2023-09-19T14:04:33;7.00;;;2.63;;
43835;SDS011;39345;43.964;25.340;2023-09-19T14:07:01;5.82;;;3.17;;
43835;SDS011;39345;43.964;25.340;2023-09-19T14:09:29;6.93;;;3.53;;
43835;SDS011;39345;43.964;25.340;2023-09-19T14:11:57;3.22;;;2.40;;
43835;SDS011;39345;43.964;25.340;2023-09-19T14:14:24;3.72;;;2.65;;
43835;SDS011;39345;43.964;25.340;2023-09-19T14:16:52;5.40;;;2.65;;
43835;SDS011;39345;43.964;25.340;2023-09-19T14:19:20;5.03;;;2.40;;
43835;SDS011;39345;43.964;25.340;2023-09-19T14:21:47;6.60;;;3.00;;
43835;SDS011;39345;43.964;25.340;2023-09-19T14:24:18;5.72;;;3.15;;
43835;SDS011;39345;43.964;25.340;2023-09-19T14:26:46;5.53;;;3.50;;
43835;SDS011;39345;43.964;25.340;2023-09-19T14:29:13;6.88;;;3.00;;
43835;SDS011;39345;43.964;25.340;2023-09-19T14:31:41;8.75;;;3.30;;
43835;SDS011;39345;43.964;25.340;2023-09-19T14:34:09;5.80;;;3.40;;
43835;SDS011;39345;43.964;25.340;2023-09-19T14:36:37;6.97;;;2.75;;
43835;SDS011;39345;43.964;25.340;2023-09-19T14:39:05;34.38;;;26.38;;
43835;SDS011;39345;43.964;25.340;2023-09-19T14:41:32;6.38;;;3.90;;
43835;SDS011;39345;43.964;25.340;2023-09-19T14:44:02;7.60;;;3.15;;
43835;SDS011;39345;43.964;25.340;2023-09-19T14:46:30;5.75;;;2.33;;
43835;SDS011;39345;43.964;25.340;2023-09-19T14:48:57;7.13;;;2.45;;
43835;SDS011;39345;43.964;25.340;2023-09-19T14:51:28;5.85;;;2.40;;
43835;SDS011;39345;43.964;25.340;2023-09-19T14:53:56;5.68;;;2.72;;
43835;SDS011;39345;43.964;25.340;2023-09-19T14:56:24;5.35;;;2.60;;
43835;SDS011;39345;43.964;25.340;2023-09-19T14:58:52;4.40;;;2.50;;
43835;SDS011;39345;43.964;25.340;2023-09-19T15:01:19;3.47;;;2.40;;
43835;SDS011;39345;43.964;25.340;2023-09-19T15:03:49;4.10;;;2.33;;
43835;SDS011;39345;43.964;25.340;2023-09-19T15:06:16;4.13;;;2.45;;
43835;SDS011;39345;43.964;25.340;2023-09-19T15:08:46;4.45;;;2.20;;
43835;SDS011;39345;43.964;25.340;2023-09-19T15:11:15;3.95;;;1.98;;
43835;SDS011;39345;43.964;25.340;2023-09-19T15:13:44;3.50;;;2.17;;
43835;SDS011;39345;43.964;25.340;2023-09-19T15:16:12;5.18;;;2.60;;
43835;SDS011;39345;43.964;25.340;2023-09-19T15:18:41;5.60;;;2.95;;
43835;SDS011;39345;43.964;25.340;2023-09-19T15:21:10;5.57;;;2.72;;
43835;SDS011;39345;43.964;25.340;2023-09-19T15:23:38;3.45;;;2.50;;
43835;SDS011;39345;43.964;25.340;2023-09-19T15:26:07;8.50;;;2.65;;
43835;SDS011;39345;43.964;25.340;2023-09-19T15:28:35;6.03;;;2.80;;
43835;SDS011;39345;43.964;25.340;2023-09-19T15:31:07;5.15;;;2.95;;
43835;SDS011;39345;43.964;25.340;2023-09-19T15:33:36;8.93;;;4.53;;
43835;SDS011;39345;43.964;25.340;2023-09-19T15:36:07;7.10;;;3.15;;
43835;SDS011;39345;43.964;25.340;2023-09-19T15:41:30;5.55;;;2.70;;
43835;SDS011;39345;43.964;25.340;2023-09-19T15:43:58;5.38;;;2.55;;
43835;SDS011;39345;43.964;25.340;2023-09-19T15:46:28;4.28;;;2.55;;
43835;SDS011;39345;43.964;25.340;2023-09-19T15:49:02;5.47;;;2.67;;